createdAt,value
2023-02-19T00:01:39.892Z,50.71
2023-02-19T00:03:42.468Z,51.02
2023-02-19T00:05:44.076Z,51.44
2023-02-19T00:07:45.630Z,52.19
2023-02-19T00:09:47.185Z,52.82
2023-02-19T00:11:49.700Z,52.27
2023-02-19T00:13:53.321Z,52.66
2023-02-19T00:15:56.361Z,52.41
2023-02-19T00:17:58.036Z,52.15
2023-02-19T00:19:59.654Z,51.67
2023-02-19T00:22:01.250Z,50.72
2023-02-19T00:24:04.978Z,51.00
2023-02-19T00:26:18.179Z,50.85
2023-02-19T00:28:20.606Z,51.16
2023-02-19T00:30:22.261Z,51.38
2023-02-19T00:32:23.876Z,52.04
2023-02-19T00:34:25.525Z,51.52
2023-02-19T00:36:28.162Z,51.66
2023-02-19T00:38:30.455Z,52.06
2023-02-19T00:40:32.061Z,52.26
2023-02-19T00:42:33.627Z,52.72
2023-02-19T00:44:35.243Z,53.05
2023-02-19T00:46:40.471Z,52.50
2023-02-19T00:48:42.094Z,52.72
2023-02-19T00:50:44.044Z,52.26
2023-02-19T00:52:45.678Z,52.88
2023-02-19T00:54:47.278Z,52.02
2023-02-19T00:56:49.314Z,52.50
2023-02-19T00:58:51.210Z,52.29
2023-02-19T01:00:52.811Z,52.49
2023-02-19T01:02:54.436Z,52.04
2023-02-19T01:04:56.037Z,51.97
2023-02-19T01:06:57.811Z,51.75
2023-02-19T01:08:59.439Z,52.74
2023-02-19T01:11:02.340Z,53.15
2023-02-19T01:13:03.920Z,53.32
2023-02-19T01:15:05.727Z,53.22
2023-02-19T01:17:07.319Z,54.31
2023-02-19T01:19:08.999Z,54.63
2023-02-19T01:21:13.489Z,54.75
2023-02-19T01:23:15.091Z,54.08
2023-02-19T01:25:16.838Z,53.62
2023-02-19T01:27:18.478Z,53.80
2023-02-19T01:29:20.084Z,53.23
2023-02-19T01:31:23.959Z,52.65
2023-02-19T01:33:25.728Z,52.17
2023-02-19T01:35:27.346Z,52.24
2023-02-19T01:37:29.216Z,52.03
2023-02-19T01:39:30.907Z,52.78
2023-02-19T01:41:35.880Z,52.61
2023-02-19T01:43:59.445Z,52.04
2023-02-19T01:46:01.444Z,51.15
2023-02-19T01:48:03.147Z,51.45
2023-02-19T01:50:05.034Z,51.36
2023-02-19T01:52:14.493Z,51.51
2023-02-19T01:54:18.093Z,51.75
2023-02-19T01:56:20.074Z,51.33
2023-02-19T01:58:22.666Z,52.37
2023-02-19T02:00:24.904Z,51.63
2023-02-19T02:02:28.434Z,51.96
2023-02-19T02:04:31.206Z,51.61
2023-02-19T02:06:51.695Z,52.12
2023-02-19T02:09:16.481Z,51.47
2023-02-19T02:11:19.130Z,51.90
2023-02-19T02:13:20.828Z,51.96
2023-02-19T02:15:24.247Z,51.75
2023-02-19T02:17:34.733Z,53.52
2023-02-19T02:20:07.271Z,54.41
2023-02-19T02:22:17.866Z,54.79
2023-02-19T02:24:38.042Z,55.19
2023-02-19T02:26:45.644Z,54.84
2023-02-19T02:28:56.062Z,54.45
2023-02-19T02:31:06.038Z,53.90
2023-02-19T02:33:39.807Z,53.26
2023-02-19T02:35:51.525Z,52.81
2023-02-19T02:37:55.742Z,52.20
2023-02-19T02:39:59.117Z,52.07
2023-02-19T02:42:19.296Z,52.60
2023-02-19T02:44:20.898Z,52.02
2023-02-19T02:46:26.485Z,52.19
2023-02-19T02:48:41.741Z,52.12
2023-02-19T02:50:54.127Z,51.94
2023-02-19T02:53:20.955Z,52.21
2023-02-19T02:55:22.842Z,52.41
2023-02-19T02:57:24.530Z,53.22
2023-02-19T02:59:29.322Z,53.11
2023-02-19T03:01:58.611Z,53.04
2023-02-19T03:04:04.094Z,52.38
2023-02-19T03:06:07.336Z,51.46
2023-02-19T03:08:15.842Z,51.95
2023-02-19T03:10:20.960Z,52.58
2023-02-19T03:12:41.931Z,52.97
2023-02-19T03:15:10.502Z,54.08
2023-02-19T03:17:52.615Z,54.04
2023-02-19T03:19:57.151Z,54.36
2023-02-19T03:22:20.033Z,54.29
2023-02-19T03:24:43.976Z,53.04
2023-02-19T03:26:45.828Z,53.44
2023-02-19T03:29:08.013Z,54.68
2023-02-19T03:31:13.553Z,54.57
2023-02-19T03:33:27.008Z,54.99
2023-02-19T03:35:32.370Z,54.68
2023-02-19T03:37:44.662Z,53.85
2023-02-19T03:39:46.194Z,54.08
2023-02-19T03:42:13.900Z,54.06
2023-02-19T03:44:18.371Z,53.65
2023-02-19T03:46:30.353Z,53.94
2023-02-19T03:48:37.040Z,53.60
2023-02-19T03:50:59.160Z,53.63
2023-02-19T03:53:12.733Z,53.98
2023-02-19T03:55:31.564Z,53.90
2023-02-19T03:57:47.242Z,53.47
2023-02-19T03:59:57.332Z,53.44
2023-02-19T04:02:04.515Z,53.55
2023-02-19T04:04:19.737Z,53.53
2023-02-19T04:06:26.763Z,52.89
2023-02-19T04:08:29.187Z,53.55
2023-02-19T04:10:31.964Z,53.30
2023-02-19T04:12:34.021Z,52.35
2023-02-19T04:15:02.734Z,52.64
2023-02-19T04:17:17.168Z,51.43
2023-02-19T04:19:20.952Z,51.91
2023-02-19T04:21:24.873Z,51.65
2023-02-19T04:23:26.742Z,51.61
2023-02-19T04:25:29.484Z,52.27
2023-02-19T04:27:31.309Z,51.95
2023-02-19T04:29:32.992Z,52.14
2023-02-19T04:31:35.820Z,52.34
2023-02-19T04:33:38.052Z,52.63
2023-02-19T04:35:39.664Z,52.52
2023-02-19T04:37:41.252Z,52.38
2023-02-19T04:39:42.875Z,52.95
2023-02-19T04:41:44.589Z,52.77
2023-02-19T04:43:46.159Z,52.48
2023-02-19T04:45:47.785Z,52.47
2023-02-19T04:48:08.705Z,53.01
2023-02-19T04:50:10.357Z,53.04
2023-02-19T04:52:12.165Z,53.21
2023-02-19T04:54:13.767Z,53.13
2023-02-19T04:56:16.766Z,52.93
2023-02-19T04:58:18.393Z,52.75
2023-02-19T05:00:20.156Z,52.32
2023-02-19T05:02:21.730Z,52.12
2023-02-19T05:04:24.038Z,52.22
2023-02-19T05:06:25.719Z,52.24
2023-02-19T05:08:27.278Z,51.77
2023-02-19T05:10:28.915Z,51.71
2023-02-19T05:12:31.202Z,51.35
2023-02-19T05:14:32.872Z,51.18
2023-02-19T05:16:34.505Z,50.69
2023-02-19T05:18:36.290Z,51.67
2023-02-19T05:20:37.872Z,50.87
2023-02-19T05:22:39.464Z,50.84
2023-02-19T05:24:41.034Z,50.77
2023-02-19T05:26:45.130Z,50.69
2023-02-19T05:28:48.779Z,50.98
2023-02-19T05:30:51.940Z,50.68
2023-02-19T05:32:53.501Z,50.15
2023-02-19T05:34:55.159Z,49.99
2023-02-19T05:36:56.766Z,49.85
2023-02-19T05:38:58.729Z,49.31
2023-02-19T05:41:26.935Z,49.35
2023-02-19T05:43:28.488Z,48.46
2023-02-19T05:45:30.448Z,48.10
2023-02-19T05:47:32.076Z,47.86
2023-02-19T05:49:33.668Z,47.94
2023-02-19T05:51:35.263Z,47.59
2023-02-19T05:53:37.486Z,47.12
2023-02-19T05:55:39.064Z,47.03
2023-02-19T05:57:45.307Z,46.68
2023-02-19T05:59:46.875Z,46.80
2023-02-19T06:01:49.944Z,46.54
2023-02-19T06:03:51.653Z,46.71
2023-02-19T06:05:53.260Z,47.13
2023-02-19T06:07:54.862Z,46.78
2023-02-19T06:09:56.474Z,47.13
2023-02-19T06:11:58.201Z,46.52
2023-02-19T06:13:59.836Z,46.68
2023-02-19T06:16:04.790Z,46.49
2023-02-19T06:18:06.321Z,46.76
2023-02-19T06:20:08.333Z,46.46
2023-02-19T06:22:10.240Z,46.71
2023-02-19T06:24:11.850Z,46.27
2023-02-19T06:26:16.189Z,46.34
2023-02-19T06:28:17.800Z,46.22
2023-02-19T06:30:19.570Z,45.88
2023-02-19T06:32:21.335Z,45.98
2023-02-19T06:34:23.062Z,46.10
2023-02-19T06:36:25.060Z,46.06
2023-02-19T06:38:27.188Z,46.25
2023-02-19T06:40:29.057Z,45.76
2023-02-19T06:42:33.758Z,45.96
2023-02-19T06:44:35.444Z,45.69
2023-02-19T06:46:37.186Z,45.96
2023-02-19T06:48:39.762Z,46.22
2023-02-19T06:50:41.390Z,46.13
2023-02-19T06:52:42.943Z,46.33
2023-02-19T06:54:44.550Z,46.69
2023-02-19T06:56:47.140Z,46.07
2023-02-19T06:58:48.907Z,45.79
2023-02-19T07:00:50.497Z,45.63
2023-02-19T07:02:56.592Z,45.76
2023-02-19T07:04:58.247Z,45.53
2023-02-19T07:07:00.374Z,45.94
2023-02-19T07:09:04.005Z,46.46
2023-02-19T07:11:05.640Z,46.25
2023-02-19T07:13:07.176Z,46.27
2023-02-19T07:15:09.215Z,47.07
2023-02-19T07:17:10.882Z,47.12
2023-02-19T07:19:12.807Z,47.73
2023-02-19T07:21:15.816Z,46.92
2023-02-19T07:23:17.431Z,47.16
2023-02-19T07:25:19.052Z,47.11
2023-02-19T07:27:20.667Z,46.77
2023-02-19T07:29:22.310Z,46.67
2023-02-19T07:31:24.748Z,46.47
2023-02-19T07:33:26.608Z,46.41
2023-02-19T07:35:28.298Z,46.23
2023-02-19T07:37:30.015Z,45.82
2023-02-19T07:39:31.699Z,45.50
2023-02-19T07:41:33.351Z,45.35
2023-02-19T07:43:36.642Z,45.10
2023-02-19T07:45:38.323Z,44.83
2023-02-19T07:47:40.022Z,44.98
2023-02-19T07:49:41.643Z,44.78
2023-02-19T07:51:44.353Z,44.77
2023-02-19T07:53:46.785Z,45.07
2023-02-19T07:55:48.530Z,44.76
2023-02-19T07:57:50.163Z,44.92
2023-02-19T07:59:52.073Z,44.88
2023-02-19T08:02:12.186Z,44.80
2023-02-19T08:04:14.534Z,44.53
2023-02-19T08:06:16.115Z,44.55
2023-02-19T08:08:17.884Z,43.98
2023-02-19T08:10:38.382Z,43.71
2023-02-19T08:12:58.772Z,44.18
2023-02-19T08:15:00.360Z,43.83
2023-02-19T08:17:02.140Z,43.88
2023-02-19T08:19:04.093Z,43.97
2023-02-19T08:21:06.018Z,43.90
2023-02-19T08:23:07.782Z,42.67
2023-02-19T08:25:09.613Z,42.48
2023-02-19T08:27:11.394Z,42.11
2023-02-19T08:29:13.010Z,41.73
2023-02-19T08:31:15.211Z,41.94
2023-02-19T08:33:19.191Z,41.88
2023-02-19T08:35:20.634Z,41.59
2023-02-19T08:37:22.229Z,41.05
2023-02-19T08:39:23.917Z,40.77
2023-02-19T08:41:25.612Z,40.32
2023-02-19T08:43:27.341Z,39.91
2023-02-19T08:45:28.955Z,39.78
2023-02-19T08:47:30.623Z,39.59
2023-02-19T08:49:32.270Z,39.80
2023-02-19T08:51:33.876Z,39.27
2023-02-19T08:53:36.916Z,39.13
2023-02-19T08:55:39.066Z,38.87
2023-02-19T08:57:40.738Z,39.43
2023-02-19T08:59:42.310Z,39.36
2023-02-19T09:01:44.054Z,39.79
2023-02-19T09:03:45.826Z,39.49
2023-02-19T09:05:48.092Z,39.50
2023-02-19T09:07:49.953Z,39.55
2023-02-19T09:09:51.652Z,39.07
2023-02-19T09:11:53.289Z,39.41
2023-02-19T09:13:56.552Z,39.47
2023-02-19T09:15:58.274Z,39.53
2023-02-19T09:18:00.157Z,39.51
2023-02-19T09:20:02.125Z,39.74
2023-02-19T09:22:05.103Z,41.33
2023-02-19T09:24:09.587Z,40.43
2023-02-19T09:26:11.637Z,39.60
2023-02-19T09:28:13.389Z,39.68
2023-02-19T09:30:15.359Z,39.72
2023-02-19T09:32:19.073Z,39.70
2023-02-19T09:34:20.957Z,40.65
2023-02-19T09:36:22.712Z,39.91
2023-02-19T09:38:24.379Z,39.24
2023-02-19T09:40:26.033Z,39.26
2023-02-19T09:42:30.545Z,38.91
2023-02-19T09:44:35.101Z,39.37
2023-02-19T09:46:46.418Z,40.53
2023-02-19T09:48:48.445Z,40.46
2023-02-19T09:50:50.090Z,39.89
2023-02-19T09:52:53.857Z,40.04
2023-02-19T09:54:57.860Z,40.37
2023-02-19T09:57:01.667Z,40.61
2023-02-19T09:59:03.493Z,40.69
2023-02-19T10:01:07.869Z,39.46
2023-02-19T10:03:17.622Z,38.97
2023-02-19T10:05:19.462Z,38.11
2023-02-19T10:07:26.927Z,38.02
2023-02-19T10:09:30.147Z,37.87
2023-02-19T10:11:31.766Z,37.60
2023-02-19T10:13:36.621Z,37.06
2023-02-19T10:15:50.520Z,37.31
2023-02-19T10:17:52.401Z,37.74
2023-02-19T10:19:54.115Z,37.53
2023-02-19T10:21:56.866Z,36.83
2023-02-19T10:24:01.517Z,37.68
2023-02-19T10:26:03.143Z,38.24
2023-02-19T10:28:04.987Z,38.79
2023-02-19T10:30:07.872Z,38.61
2023-02-19T10:32:20.963Z,38.57
2023-02-19T10:34:23.113Z,38.94
2023-02-19T10:36:34.276Z,38.83
2023-02-19T10:38:39.361Z,39.11
2023-02-19T10:40:44.504Z,38.89
2023-02-19T10:42:51.272Z,38.58
2023-02-19T10:45:01.757Z,37.87
2023-02-19T10:47:03.564Z,37.73
2023-02-19T10:49:07.143Z,37.98
2023-02-19T10:51:11.639Z,38.95
2023-02-19T10:53:25.497Z,38.64
2023-02-19T10:55:30.550Z,38.74
2023-02-19T10:57:34.171Z,38.52
2023-02-19T10:59:35.809Z,38.13
2023-02-19T11:01:39.583Z,37.59
2023-02-19T11:03:41.231Z,37.18
2023-02-19T11:06:06.653Z,37.57
2023-02-19T11:08:21.813Z,37.56
2023-02-19T11:10:27.948Z,36.75
2023-02-19T11:12:33.509Z,36.23
2023-02-19T11:14:35.140Z,35.60
2023-02-19T11:16:50.174Z,35.16
2023-02-19T11:18:57.317Z,35.13
2023-02-19T11:21:04.449Z,34.84
2023-02-19T11:23:24.580Z,35.38
2023-02-19T11:25:26.863Z,35.57
2023-02-19T11:27:28.686Z,35.37
2023-02-19T11:29:35.016Z,34.71
2023-02-19T11:31:36.757Z,34.46
2023-02-19T11:33:54.475Z,34.33
2023-02-19T11:36:20.849Z,34.27
2023-02-19T11:38:22.588Z,34.24
2023-02-19T11:41:01.645Z,34.02
2023-02-19T11:43:08.113Z,33.77
2023-02-19T11:45:24.651Z,33.24
2023-02-19T11:47:44.899Z,32.76
2023-02-19T11:49:55.668Z,33.09
2023-02-19T11:52:45.231Z,32.76
2023-02-19T11:54:52.006Z,32.11
2023-02-19T11:57:02.662Z,32.27
2023-02-19T11:59:05.446Z,32.15
2023-02-19T12:01:38.418Z,32.20
2023-02-19T12:03:48.969Z,32.14
2023-02-19T12:05:58.380Z,32.04
2023-02-19T12:08:18.376Z,32.25
2023-02-19T12:10:25.997Z,31.91
2023-02-19T12:12:37.913Z,31.75
2023-02-19T12:15:11.717Z,31.65
2023-02-19T12:17:32.138Z,31.59
2023-02-19T12:19:51.915Z,31.27
2023-02-19T12:22:05.688Z,31.30
2023-02-19T12:24:32.208Z,31.22
2023-02-19T12:26:52.346Z,31.39
2023-02-19T12:29:31.466Z,31.06
2023-02-19T12:32:00.455Z,31.15
2023-02-19T12:34:10.867Z,31.25
2023-02-19T12:36:30.878Z,31.12
2023-02-19T12:38:39.506Z,30.83
2023-02-19T12:40:56.076Z,31.04
2023-02-19T12:43:09.091Z,30.69
2023-02-19T12:45:16.636Z,30.69
2023-02-19T12:47:28.651Z,30.66
2023-02-19T12:49:39.120Z,30.62
2023-02-19T12:51:55.275Z,30.90
2023-02-19T12:54:06.384Z,30.85
2023-02-19T12:56:15.125Z,30.66
2023-02-19T12:58:32.227Z,30.50
2023-02-19T13:00:39.592Z,30.62
2023-02-19T13:02:50.517Z,30.65
2023-02-19T13:05:14.396Z,31.30
2023-02-19T13:07:38.900Z,31.93
2023-02-19T13:09:41.849Z,31.96
2023-02-19T13:12:18.323Z,31.58
2023-02-19T13:14:31.194Z,31.66
2023-02-19T13:16:35.086Z,31.42
2023-02-19T13:19:03.031Z,31.34
2023-02-19T13:21:06.363Z,31.16
2023-02-19T13:23:35.323Z,31.20
2023-02-19T13:26:14.720Z,31.14
2023-02-19T13:28:36.651Z,30.67
2023-02-19T13:30:53.758Z,30.84
2023-02-19T13:33:32.742Z,30.92
2023-02-19T13:36:06.295Z,31.37
2023-02-19T13:38:10.251Z,31.73
2023-02-19T13:40:35.524Z,31.69
2023-02-19T13:42:37.213Z,31.94
2023-02-19T13:44:41.148Z,31.94
2023-02-19T13:46:45.128Z,31.58
2023-02-19T13:48:46.789Z,31.58
2023-02-19T13:50:48.388Z,31.76
2023-02-19T13:52:54.648Z,31.45
2023-02-19T13:55:33.424Z,31.48
2023-02-19T13:57:35.303Z,31.36
2023-02-19T13:59:39.296Z,31.52
2023-02-19T14:01:49.671Z,31.42
2023-02-19T14:04:08.088Z,32.03
2023-02-19T14:06:10.150Z,32.38
2023-02-19T14:08:11.804Z,32.33
2023-02-19T14:10:34.507Z,32.35
2023-02-19T14:12:37.388Z,32.22
2023-02-19T14:14:53.433Z,32.46
2023-02-19T14:17:04.475Z,32.56
2023-02-19T14:19:18.782Z,33.06
2023-02-19T14:21:28.480Z,32.73
2023-02-19T14:23:30.107Z,32.59
2023-02-19T14:25:44.879Z,32.34
2023-02-19T14:27:46.593Z,32.23
2023-02-19T14:29:48.690Z,31.98
2023-02-19T14:31:50.353Z,31.95
2023-02-19T14:33:54.582Z,31.75
2023-02-19T14:36:00.089Z,31.95
2023-02-19T14:38:02.362Z,32.14
2023-02-19T14:40:04.669Z,32.28
2023-02-19T14:42:12.673Z,32.26
2023-02-19T14:44:26.392Z,32.54
2023-02-19T14:46:35.124Z,32.46
2023-02-19T14:48:41.736Z,32.62
2023-02-19T14:50:47.023Z,32.60
2023-02-19T14:52:50.255Z,32.67
2023-02-19T14:54:58.294Z,32.29
2023-02-19T14:57:00.823Z,32.30
2023-02-19T14:59:11.272Z,32.22
2023-02-19T15:01:27.059Z,32.02
2023-02-19T15:03:35.578Z,32.05
2023-02-19T15:05:37.670Z,32.76
2023-02-19T15:07:41.592Z,32.90
2023-02-19T15:09:47.053Z,32.78
2023-02-19T15:11:48.930Z,33.19
2023-02-19T15:13:52.533Z,33.20
2023-02-19T15:15:55.362Z,33.06
2023-02-19T15:17:57.833Z,33.67
2023-02-19T15:20:03.537Z,33.50
2023-02-19T15:22:05.335Z,33.55
2023-02-19T15:24:07.486Z,33.38
2023-02-19T15:26:22.239Z,33.66
2023-02-19T15:28:23.768Z,33.63
2023-02-19T15:30:29.575Z,33.75
2023-02-19T15:32:32.661Z,33.93
2023-02-19T15:34:34.349Z,34.93
2023-02-19T15:36:36.066Z,35.83
2023-02-19T15:38:37.707Z,36.27
2023-02-19T15:40:39.563Z,36.54
2023-02-19T15:42:44.413Z,36.59
2023-02-19T15:44:49.063Z,36.75
2023-02-19T15:46:50.947Z,36.94
2023-02-19T15:49:11.458Z,37.07
2023-02-19T15:51:18.793Z,36.97
2023-02-19T15:53:23.750Z,36.83
2023-02-19T15:55:39.474Z,36.90
2023-02-19T15:57:45.382Z,37.14
2023-02-19T16:00:01.268Z,37.27
2023-02-19T16:02:04.369Z,37.50
2023-02-19T16:04:14.746Z,37.66
2023-02-19T16:06:17.920Z,37.74
2023-02-19T16:08:21.035Z,38.18
2023-02-19T16:10:24.125Z,38.53
2023-02-19T16:12:27.364Z,38.62
2023-02-19T16:14:30.246Z,38.58
2023-02-19T16:16:36.457Z,38.74
2023-02-19T16:18:38.194Z,38.99
2023-02-19T16:20:39.798Z,39.16
2023-02-19T16:22:42.832Z,39.13
2023-02-19T16:24:46.839Z,39.52
2023-02-19T16:26:48.492Z,39.17
2023-02-19T16:28:52.098Z,38.97
2023-02-19T16:31:08.508Z,38.71
2023-02-19T16:33:35.758Z,38.19
2023-02-19T16:35:40.260Z,38.14
2023-02-19T16:37:57.828Z,37.93
2023-02-19T16:40:08.405Z,37.72
2023-02-19T16:42:14.510Z,38.04
2023-02-19T16:44:36.338Z,38.11
2023-02-19T16:46:40.874Z,38.11
2023-02-19T16:48:42.521Z,38.36
2023-02-19T16:50:46.316Z,37.96
2023-02-19T16:52:54.556Z,38.00
2023-02-19T16:54:56.290Z,38.03
2023-02-19T16:56:57.896Z,37.78
2023-02-19T16:58:59.438Z,37.96
2023-02-19T17:01:01.811Z,38.22
2023-02-19T17:03:09.199Z,38.20
2023-02-19T17:05:10.917Z,38.19
2023-02-19T17:07:14.817Z,38.31
2023-02-19T17:09:16.454Z,38.37
2023-02-19T17:11:18.461Z,38.64
2023-02-19T17:13:20.040Z,38.68
2023-02-19T17:15:22.282Z,38.80
2023-02-19T17:17:23.902Z,38.58
2023-02-19T17:19:25.460Z,38.15
2023-02-19T17:21:28.867Z,38.27
2023-02-19T17:23:30.497Z,38.34
2023-02-19T17:25:32.171Z,38.23
2023-02-19T17:27:33.826Z,37.98
2023-02-19T17:29:37.180Z,38.09
2023-02-19T17:31:38.862Z,38.04
2023-02-19T17:33:41.194Z,38.00
2023-02-19T17:35:44.855Z,37.95
2023-02-19T17:37:46.527Z,38.45
2023-02-19T17:39:49.244Z,39.01
2023-02-19T17:41:51.184Z,39.23
2023-02-19T17:43:53.332Z,39.36
2023-02-19T17:45:54.943Z,39.30
2023-02-19T17:47:56.549Z,39.21
2023-02-19T17:49:58.106Z,39.51
2023-02-19T17:51:59.668Z,39.89
2023-02-19T17:54:01.606Z,39.92
2023-02-19T17:56:03.555Z,40.13
2023-02-19T17:58:05.086Z,40.57
2023-02-19T18:00:07.797Z,40.49
2023-02-19T18:02:09.332Z,40.23
2023-02-19T18:04:10.958Z,40.13
2023-02-19T18:06:12.935Z,39.79
2023-02-19T18:08:14.955Z,40.07
2023-02-19T18:10:18.564Z,39.52
2023-02-19T18:12:20.148Z,39.60
2023-02-19T18:14:21.768Z,39.59
2023-02-19T18:16:23.464Z,39.33
2023-02-19T18:18:25.088Z,39.30
2023-02-19T18:20:28.621Z,39.14
2023-02-19T18:22:31.033Z,39.32
2023-02-19T18:24:32.737Z,39.04
2023-02-19T18:26:34.370Z,38.96
2023-02-19T18:28:36.498Z,39.21
2023-02-19T18:30:38.205Z,39.06
2023-02-19T18:32:39.841Z,39.17
2023-02-19T18:34:41.416Z,39.07
2023-02-19T18:36:46.978Z,39.15
2023-02-19T18:38:48.604Z,39.19
2023-02-19T18:40:50.174Z,39.52
2023-02-19T18:42:52.198Z,39.37
2023-02-19T18:44:54.351Z,39.50
2023-02-19T18:46:56.051Z,39.52
2023-02-19T18:48:58.010Z,39.30
2023-02-19T18:50:59.608Z,39.45
2023-02-19T18:53:01.333Z,39.19
2023-02-19T18:55:03.147Z,39.36
2023-02-19T18:57:04.793Z,39.15
2023-02-19T18:59:06.439Z,39.66
2023-02-19T19:01:08.093Z,39.50
2023-02-19T19:03:09.814Z,39.47
2023-02-19T19:05:13.325Z,39.50
2023-02-19T19:07:15.095Z,39.76
2023-02-19T19:09:16.687Z,39.63
2023-02-19T19:11:18.421Z,39.78
2023-02-19T19:13:20.040Z,39.92
2023-02-19T19:15:22.256Z,40.06
2023-02-19T19:17:23.822Z,39.67
2023-02-19T19:19:25.383Z,39.91
2023-02-19T19:21:27.269Z,39.67
2023-02-19T19:23:29.057Z,40.17
2023-02-19T19:25:30.692Z,40.10
2023-02-19T19:27:32.338Z,40.35
2023-02-19T19:29:33.904Z,40.83
2023-02-19T19:31:36.499Z,41.69
2023-02-19T19:33:38.450Z,42.06
2023-02-19T19:35:40.020Z,42.17
2023-02-19T19:37:41.615Z,42.55
2023-02-19T19:39:44.103Z,42.24
2023-02-19T19:41:45.679Z,41.86
2023-02-19T19:43:47.268Z,41.92
2023-02-19T19:45:50.040Z,41.70
2023-02-19T19:47:52.937Z,41.43
2023-02-19T19:49:54.501Z,41.47
2023-02-19T19:52:01.067Z,41.19
2023-02-19T19:54:04.186Z,40.97
2023-02-19T19:56:06.441Z,40.98
2023-02-19T19:58:08.302Z,41.15
2023-02-19T20:00:13.818Z,41.29
2023-02-19T20:02:15.381Z,41.36
2023-02-19T20:04:18.271Z,40.93
2023-02-19T20:06:31.000Z,41.50
2023-02-19T20:08:32.628Z,41.54
2023-02-19T20:10:34.287Z,41.86
2023-02-19T20:12:36.217Z,41.65
2023-02-19T20:14:37.878Z,41.79
2023-02-19T20:16:39.465Z,41.67
2023-02-19T20:18:41.590Z,41.82
2023-02-19T20:20:43.197Z,42.20
2023-02-19T20:22:44.877Z,42.20
2023-02-19T20:24:51.286Z,42.14
2023-02-19T20:27:01.932Z,42.48
2023-02-19T20:29:06.083Z,42.47
2023-02-19T20:31:08.452Z,42.81
2023-02-19T20:33:10.137Z,42.83
2023-02-19T20:35:11.925Z,42.92
2023-02-19T20:37:14.186Z,43.59
2023-02-19T20:39:17.109Z,43.22
2023-02-19T20:41:18.726Z,43.38
2023-02-19T20:43:20.356Z,43.64
2023-02-19T20:45:22.105Z,43.89
2023-02-19T20:47:23.747Z,44.11
2023-02-19T20:49:27.980Z,43.99
2023-02-19T20:51:29.517Z,44.11
2023-02-19T20:53:32.039Z,44.15
2023-02-19T20:55:33.707Z,44.24
2023-02-19T20:57:35.320Z,44.13
2023-02-19T20:59:38.683Z,44.28
2023-02-19T21:01:40.562Z,44.54
2023-02-19T21:03:42.210Z,44.71
2023-02-19T21:05:44.019Z,45.01
2023-02-19T21:07:46.290Z,44.80
2023-02-19T21:09:47.858Z,45.22
2023-02-19T21:11:50.004Z,44.95
2023-02-19T21:13:51.598Z,45.66
2023-02-19T21:15:53.402Z,45.72
2023-02-19T21:17:55.026Z,45.79
2023-02-19T21:19:56.606Z,45.72
2023-02-19T21:21:58.329Z,45.92
2023-02-19T21:24:00.435Z,46.17
2023-02-19T21:26:02.960Z,45.72
2023-02-19T21:28:05.742Z,46.05
2023-02-19T21:30:07.905Z,46.17
2023-02-19T21:32:09.724Z,46.02
2023-02-19T21:34:13.317Z,45.85
2023-02-19T21:36:15.152Z,45.92
2023-02-19T21:38:16.732Z,46.20
2023-02-19T21:40:18.432Z,45.94
2023-02-19T21:42:20.011Z,46.29
2023-02-19T21:44:21.805Z,45.93
2023-02-19T21:46:24.315Z,46.12
2023-02-19T21:48:25.931Z,46.40
2023-02-19T21:50:27.550Z,46.36
2023-02-19T21:52:31.088Z,46.65
2023-02-19T21:54:32.735Z,46.67
2023-02-19T21:56:36.460Z,46.83
2023-02-19T21:58:38.298Z,46.78
2023-02-19T22:00:39.937Z,46.72
2023-02-19T22:02:42.153Z,46.79
2023-02-19T22:04:43.764Z,47.02
2023-02-19T22:06:45.363Z,47.08
2023-02-19T22:08:46.963Z,46.93
2023-02-19T22:10:48.496Z,47.00
2023-02-19T22:12:50.124Z,47.02
2023-02-19T22:14:52.840Z,47.05
2023-02-19T22:16:54.455Z,47.02
2023-02-19T22:18:58.315Z,47.15
2023-02-19T22:20:59.778Z,47.24
2023-02-19T22:23:01.751Z,47.13
2023-02-19T22:25:03.442Z,47.67
2023-02-19T22:27:05.192Z,47.40
2023-02-19T22:29:08.348Z,47.54
2023-02-19T22:31:10.092Z,47.38
2023-02-19T22:33:11.765Z,47.55
2023-02-19T22:35:15.437Z,47.51
2023-02-19T22:37:17.427Z,47.61
2023-02-19T22:39:27.769Z,47.97
2023-02-19T22:41:29.481Z,47.94
2023-02-19T22:43:31.093Z,47.79
2023-02-19T22:45:32.712Z,47.91
2023-02-19T22:47:34.312Z,48.10
2023-02-19T22:49:38.503Z,47.88
2023-02-19T22:51:40.131Z,48.09
2023-02-19T22:53:53.186Z,48.34
2023-02-19T22:55:54.867Z,48.52
2023-02-19T22:57:56.547Z,48.26
2023-02-19T22:59:58.114Z,48.43
2023-02-19T23:01:59.684Z,48.72
2023-02-19T23:04:01.436Z,48.90
2023-02-19T23:06:04.546Z,49.03
2023-02-19T23:08:06.258Z,49.11
2023-02-19T23:10:08.245Z,49.10
2023-02-19T23:12:11.256Z,49.23
2023-02-19T23:14:13.812Z,49.24
2023-02-19T23:16:15.866Z,49.08
2023-02-19T23:18:17.630Z,49.59
2023-02-19T23:20:19.320Z,49.61
2023-02-19T23:22:21.001Z,49.73
2023-02-19T23:24:22.580Z,49.90
2023-02-19T23:26:24.237Z,49.90
2023-02-19T23:28:25.913Z,49.79
2023-02-19T23:30:27.537Z,49.87
2023-02-19T23:32:29.188Z,49.71
2023-02-19T23:34:30.849Z,50.02
2023-02-19T23:36:32.417Z,50.10
2023-02-19T23:38:34.104Z,49.97
2023-02-19T23:40:35.996Z,49.96
2023-02-19T23:42:37.705Z,50.19
2023-02-19T23:44:39.263Z,50.62
2023-02-19T23:46:40.852Z,50.62
2023-02-19T23:48:42.585Z,50.60
2023-02-19T23:50:44.159Z,51.01
2023-02-19T23:52:45.758Z,51.23
2023-02-19T23:54:47.416Z,51.51
2023-02-19T23:56:48.995Z,51.87
2023-02-19T23:58:50.814Z,51.99
